Ilia, Greece

10:19 PM EET on February 08, 2016 (GMT +0200)
Andravida Air Base | | Change Station
CLOSE
Current Station
Airport
Location: Andravida,
Elevation: 46 ft
Nearby Weather Stations

Elev 46 ft 37.92 °N, 21.29 °E | Updated 29 minutes ago

Clear
Clear
45 °F
Feels Like 45 °F
N
0
Wind Variable Wind from North

Today
High -- | Low -- °F
--% Chance of Precip.
Yesterday
High -- | Low -- °F
Precip. -- in
Pressure 30.27 in
Visibility -9999.0 miles
Clouds
Dew Point 39 °F
Humidity 81%
Rainfall 0.00 in
Snow Depth Not available.
7:33 AM 6:05 PM
New Moon, 0% visible
METAR LGAD 081950Z 00000KT CAVOK 07/04 Q1025
Pressure 30.27 in
Visibility -9999.0 miles
Clouds
Dew Point 39 °F
Humidity 81%
Rainfall 0.00 in
Snow Depth Not available.
7:33 AM 6:05 PM
New Moon, 0% visible
METAR LGAD 081950Z 00000KT CAVOK 07/04 Q1025

10-Day Weather Forecast

Almanac

Astronomy

Feb. 08, 2016 Rise Set
Actual Time
Civil Twilight
Nautical Twilight
Astronomical Twilight
Moon
Length of Visible Light
Length of Day
Tomorrow will be .
, % of the Moon is Illuminated

Today's Extremes

Country Highs Country Lows

Community

WunderPhotos

Upload Photos

1,891,503 photos uploaded!

WunderBlog® & News

Nearby

Air Quality

  Air Quality AQ Index Pollutant
Not available.

Snow Depth

Station Depth Elevation

Earthquake Activity

City Distance Mag. Time & Date
Minimum magnitude displayed is 2.5.

Coastal Water Temperatures

Place Temperature

Stations

Nearby Weather Stations

Station Location Temp. Windchill Dew Point Humidity Wind Precip. Elev Updated Type